Time;durP1;ratioP1;P1;durP2;ratioP2;P2;SDS_P1;SDS_P2;PMS_P1;PMS_P2;Temp;Humidity;BMP_temperature;BMP_pressure;BME280_temperature;BME280_humidity;BME280_pressure;Samples;Min_cycle;Max_cycle;Signal;HPM_P1;HPM_P2
2021/03/07 00:00:26;;;;;;;13.73;8.50;;;19.90;28.10;;;;;;5095031;28;20111;-60
2021/03/07 00:02:53;;;;;;;14.52;8.43;;;19.90;28.10;;;;;;5095319;28;20084;-60
2021/03/07 00:05:19;;;;;;;16.02;9.43;;;19.90;28.10;;;;;;5098227;28;20032;-61
2021/03/07 00:07:45;;;;;;;14.73;8.77;;;19.90;28.10;;;;;;5095224;28;20342;-60
2021/03/07 00:10:13;;;;;;;14.05;8.40;;;19.80;28.10;;;;;;5095326;28;20468;-60
2021/03/07 00:12:39;;;;;;;14.65;8.80;;;19.80;28.10;;;;;;5095364;28;20424;-60
2021/03/07 00:15:07;;;;;;;13.60;8.20;;;19.80;28.10;;;;;;5095172;28;20024;-60
2021/03/07 00:17:33;;;;;;;14.05;8.02;;;19.80;28.10;;;;;;5094624;28;20025;-60
2021/03/07 00:19:58;;;;;;;13.23;8.02;;;19.80;28.10;;;;;;5094980;28;20032;-60
2021/03/07 00:22:24;;;;;;;13.98;8.18;;;19.80;28.10;;;;;;5094852;28;20026;-60
2021/03/07 00:24:49;;;;;;;13.63;8.07;;;19.80;28.10;;;;;;5094704;28;20471;-60
2021/03/07 00:27:15;;;;;;;12.43;7.68;;;19.80;28.10;;;;;;5094908;28;20089;-60
2021/03/07 00:29:41;;;;;;;13.18;7.78;;;19.80;28.10;;;;;;5095225;28;20078;-60
2021/03/07 00:32:06;;;;;;;12.57;8.10;;;19.70;28.10;;;;;;5095224;28;20093;-60
2021/03/07 00:34:32;;;;;;;13.90;7.93;;;19.70;28.10;;;;;;5095089;28;20020;-60
2021/03/07 00:36:58;;;;;;;11.48;7.38;;;19.70;28.10;;;;;;5095005;28;20024;-61
2021/03/07 00:39:23;;;;;;;12.15;7.68;;;19.70;28.20;;;;;;5094645;28;20020;-60
2021/03/07 00:41:49;;;;;;;13.63;7.80;;;19.70;28.20;;;;;;5094612;28;20024;-62
2021/03/07 00:44:15;;;;;;;14.18;8.20;;;19.70;28.20;;;;;;5094775;28;20032;-60
2021/03/07 00:46:43;;;;;;;11.85;7.25;;;19.70;28.20;;;;;;5094473;28;20111;-60
2021/03/07 00:49:09;;;;;;;15.00;8.23;;;19.70;28.20;;;;;;5094559;28;20023;-60
2021/03/07 00:51:35;;;;;;;12.80;8.23;;;19.60;28.20;;;;;;5094218;28;20024;-60
2021/03/07 00:54:01;;;;;;;13.35;7.97;;;19.60;28.20;;;;;;5094248;28;20046;-60
2021/03/07 00:56:26;;;;;;;12.43;7.70;;;19.60;28.20;;;;;;5093895;28;20066;-60
2021/03/07 00:58:52;;;;;;;12.02;7.15;;;19.60;28.20;;;;;;5094066;28;20028;-60
2021/03/07 01:01:17;;;;;;;12.52;7.78;;;19.60;28.20;;;;;;5094458;28;20028;-60
2021/03/07 01:03:43;;;;;;;14.13;8.90;;;19.60;28.20;;;;;;5094101;28;20528;-60
2021/03/07 01:06:09;;;;;;;11.82;7.63;;;19.60;28.20;;;;;;5093900;28;20495;-61
2021/03/07 01:08:35;;;;;;;12.32;7.68;;;19.50;28.20;;;;;;5093956;28;20379;-61
2021/03/07 01:11:01;;;;;;;12.40;8.10;;;19.60;28.10;;;;;;5094325;28;20095;-60
2021/03/07 01:13:26;;;;;;;13.25;7.95;;;19.50;28.20;;;;;;5093756;28;20536;-60
2021/03/07 01:15:52;;;;;;;11.18;7.15;;;19.50;28.20;;;;;;5094141;28;20116;-60
2021/03/07 01:18:17;;;;;;;13.88;8.43;;;19.50;28.20;;;;;;5093917;28;20054;-59
2021/03/07 01:20:44;;;;;;;12.88;7.65;;;19.50;28.20;;;;;;5093905;28;20052;-60
2021/03/07 01:23:13;;;;;;;12.60;7.50;;;19.50;28.20;;;;;;5093896;28;20020;-60
2021/03/07 01:25:38;;;;;;;12.25;7.53;;;19.50;28.20;;;;;;5093661;28;20464;-60
2021/03/07 01:28:05;;;;;;;11.50;7.20;;;19.50;28.20;;;;;;5094033;28;20058;-60
2021/03/07 01:30:33;;;;;;;11.68;7.55;;;19.50;28.20;;;;;;5091615;28;20028;-59
2021/03/07 01:32:58;;;;;;;11.07;7.03;;;19.50;28.20;;;;;;5093620;28;20027;-59
2021/03/07 01:35:24;;;;;;;13.65;8.20;;;19.50;28.20;;;;;;5093764;28;20028;-60
2021/03/07 01:37:50;;;;;;;14.30;7.45;;;19.50;28.20;;;;;;5093555;28;20020;-60
2021/03/07 01:40:25;;;;;;;12.57;6.97;;;19.50;28.20;;;;;;5094095;28;20028;-60
2021/03/07 01:42:54;;;;;;;11.07;6.80;;;19.50;28.20;;;;;;5094232;28;20028;-60
2021/03/07 01:45:24;;;;;;;15.20;7.53;;;19.50;28.20;;;;;;5099644;28;20051;-60
2021/03/07 01:47:53;;;;;;;12.60;7.43;;;19.50;28.20;;;;;;5099994;28;20024;-59
2021/03/07 01:50:22;;;;;;;11.50;7.32;;;19.50;28.20;;;;;;5100418;28;20016;-60
2021/03/07 01:52:48;;;;;;;12.02;7.15;;;19.50;28.20;;;;;;5095145;28;20059;-59
2021/03/07 01:55:17;;;;;;;12.68;6.88;;;19.40;28.30;;;;;;5094511;28;20020;-59
2021/03/07 01:57:45;;;;;;;12.65;7.50;;;19.40;28.30;;;;;;5099730;28;20024;-59
2021/03/07 02:00:11;;;;;;;13.05;7.10;;;19.40;28.30;;;;;;5099739;28;20047;-59
2021/03/07 02:02:37;;;;;;;15.00;7.63;;;19.40;28.30;;;;;;5099185;28;20020;-60
2021/03/07 02:05:22;;;;;;;11.75;6.97;;;19.40;28.30;;;;;;5101507;28;20043;-59
2021/03/07 02:07:49;;;;;;;13.68;7.20;;;19.40;28.30;;;;;;5102534;28;20032;-61
2021/03/07 02:10:18;;;;;;;12.10;7.05;;;19.30;28.20;;;;;;5099926;28;20032;-60
2021/03/07 02:12:45;;;;;;;12.90;6.65;;;19.30;28.30;;;;;;5093886;28;20031;-60
2021/03/07 02:15:12;;;;;;;12.38;7.13;;;19.40;28.30;;;;;;5093696;28;20099;-59
2021/03/07 02:17:39;;;;;;;13.32;7.70;;;19.30;28.30;;;;;;5093016;28;20567;-60
2021/03/07 02:20:06;;;;;;;12.32;7.25;;;19.30;28.30;;;;;;5093644;28;20049;-59
2021/03/07 02:22:36;;;;;;;11.07;6.90;;;19.30;28.30;;;;;;5093684;28;20399;-60
2021/03/07 02:25:11;;;;;;;11.63;6.80;;;19.30;28.30;;;;;;5093396;28;20390;-59
2021/03/07 02:27:37;;;;;;;12.77;6.75;;;19.30;28.30;;;;;;5093127;28;20340;-60
2021/03/07 02:30:09;;;;;;;12.13;6.95;;;19.30;28.30;;;;;;5093706;28;20434;-60
2021/03/07 02:32:38;;;;;;;11.35;6.90;;;19.30;28.30;;;;;;5096416;28;20028;-60
2021/03/07 02:35:07;;;;;;;11.90;6.68;;;19.30;28.30;;;;;;5097531;28;20383;-60
2021/03/07 02:37:35;;;;;;;11.32;6.78;;;19.30;28.30;;;;;;5093065;28;20046;-59
2021/03/07 02:40:01;;;;;;;10.85;7.05;;;19.20;28.30;;;;;;5092219;28;20027;-60
2021/03/07 02:42:28;;;;;;;11.25;6.82;;;19.30;28.30;;;;;;5096283;28;20098;-59
2021/03/07 02:45:05;;;;;;;11.93;6.57;;;19.30;28.30;;;;;;5096791;28;20024;-60
2021/03/07 02:47:36;;;;;;;11.93;7.18;;;19.20;28.30;;;;;;5096803;28;20028;-60
2021/03/07 02:50:08;;;;;;;13.20;7.72;;;19.20;28.30;;;;;;5096845;28;20588;-60
2021/03/07 02:52:37;;;;;;;11.50;6.85;;;19.20;28.30;;;;;;5096735;28;20024;-60
2021/03/07 02:55:04;;;;;;;10.52;6.28;;;19.20;28.30;;;;;;5097238;28;20038;-59
2021/03/07 02:57:31;;;;;;;11.50;6.60;;;19.20;28.30;;;;;;5096484;28;20039;-60
2021/03/07 02:59:57;;;;;;;11.00;7.07;;;19.20;28.30;;;;;;5096486;28;20095;-60
2021/03/07 03:02:27;;;;;;;11.63;6.53;;;19.20;28.20;;;;;;5096749;28;20028;-60
2021/03/07 03:04:54;;;;;;;12.23;6.97;;;19.20;28.30;;;;;;5096288;28;20036;-60
2021/03/07 03:07:20;;;;;;;12.68;6.95;;;19.20;28.30;;;;;;5096434;28;20061;-60
2021/03/07 03:09:46;;;;;;;11.52;6.85;;;19.20;28.30;;;;;;5096436;28;20024;-60
2021/03/07 03:12:12;;;;;;;11.18;7.13;;;19.10;28.30;;;;;;5096481;28;20040;-60
2021/03/07 03:14:38;;;;;;;10.18;6.22;;;19.10;28.30;;;;;;5096551;28;20047;-59
2021/03/07 03:17:06;;;;;;;10.98;5.95;;;19.10;28.30;;;;;;5096371;28;20445;-60
2021/03/07 03:19:34;;;;;;;11.10;6.22;;;19.10;28.30;;;;;;5095868;28;20131;-59
2021/03/07 03:22:00;;;;;;;12.05;6.20;;;19.10;28.30;;;;;;5096100;28;20039;-60
2021/03/07 03:24:25;;;;;;;12.73;6.32;;;19.10;28.30;;;;;;5095844;28;20028;-60
2021/03/07 03:27:01;;;;;;;11.35;6.20;;;19.10;28.40;;;;;;5095370;28;20101;-60
2021/03/07 03:29:27;;;;;;;10.38;6.63;;;19.10;28.30;;;;;;5096064;28;20576;-59
2021/03/07 03:31:53;;;;;;;15.50;7.07;;;19.10;28.30;;;;;;5096144;28;20047;-60
2021/03/07 03:34:18;;;;;;;13.00;6.65;;;19.10;28.30;;;;;;5096317;28;20028;-59
2021/03/07 03:36:44;;;;;;;11.50;6.50;;;19.10;28.40;;;;;;5096198;28;20036;-59
2021/03/07 03:39:14;;;;;;;11.55;6.53;;;19.10;28.40;;;;;;5095947;28;20083;-60
2021/03/07 03:41:43;;;;;;;11.02;6.47;;;19.00;28.40;;;;;;5095658;28;20456;-60
2021/03/07 03:44:11;;;;;;;10.35;6.35;;;19.00;28.40;;;;;;5095852;28;20032;-60
2021/03/07 03:46:40;;;;;;;11.48;6.40;;;19.00;28.30;;;;;;5095436;28;20400;-59
2021/03/07 03:49:21;;;;;;;10.73;6.10;;;19.00;28.40;;;;;;5095335;28;20020;-60
2021/03/07 03:51:50;;;;;;;9.60;5.85;;;19.00;28.40;;;;;;5095360;28;20039;-61
2021/03/07 03:54:18;;;;;;;10.32;6.03;;;19.00;28.30;;;;;;5094685;28;20088;-59
2021/03/07 03:56:47;;;;;;;13.25;6.97;;;19.00;28.40;;;;;;5095645;28;20032;-60
2021/03/07 03:59:14;;;;;;;10.55;6.18;;;19.00;28.40;;;;;;5095818;28;20035;-60
2021/03/07 04:01:41;;;;;;;11.07;6.72;;;19.00;28.30;;;;;;5095491;28;20371;-60
2021/03/07 04:04:07;;;;;;;10.57;6.22;;;19.00;28.40;;;;;;5095173;28;20329;-60
2021/03/07 04:06:33;;;;;;;11.77;6.78;;;19.00;28.40;;;;;;5095285;28;20036;-60
2021/03/07 04:08:59;;;;;;;11.98;6.13;;;19.00;28.30;;;;;;5095715;28;20028;-59
2021/03/07 04:11:26;;;;;;;9.13;5.38;;;19.00;28.30;;;;;;5095729;28;20039;-59
2021/03/07 04:13:53;;;;;;;9.52;5.85;;;19.00;28.40;;;;;;5095346;28;20546;-59
2021/03/07 04:16:20;;;;;;;10.50;6.13;;;19.00;28.40;;;;;;5095486;28;20028;-61
2021/03/07 04:18:47;;;;;;;11.43;6.40;;;19.00;28.40;;;;;;5095519;28;20059;-61
2021/03/07 04:21:14;;;;;;;10.60;6.07;;;19.00;28.40;;;;;;5095297;28;20133;-60
2021/03/07 04:23:40;;;;;;;10.85;6.40;;;19.00;28.40;;;;;;5095169;28;20026;-58
2021/03/07 04:26:06;;;;;;;10.07;6.28;;;18.90;28.30;;;;;;5095282;28;20127;-58
2021/03/07 04:28:32;;;;;;;11.40;6.20;;;18.90;28.30;;;;;;5095354;28;20034;-58
2021/03/07 04:30:58;;;;;;;13.52;6.28;;;18.90;28.40;;;;;;5095320;28;20107;-61
2021/03/07 04:33:24;;;;;;;10.38;5.88;;;18.90;28.40;;;;;;5095176;28;20028;-60
2021/03/07 04:35:50;;;;;;;9.30;5.40;;;18.90;28.40;;;;;;5095501;28;20123;-60
2021/03/07 04:38:16;;;;;;;10.57;6.13;;;18.90;28.40;;;;;;5095288;28;20028;-60
2021/03/07 04:40:42;;;;;;;12.13;6.55;;;18.90;28.30;;;;;;5095761;28;20032;-60
2021/03/07 04:43:08;;;;;;;9.88;5.82;;;18.90;28.40;;;;;;5101240;28;20024;-61
2021/03/07 04:45:34;;;;;;;10.95;5.90;;;18.90;28.30;;;;;;5104950;28;20048;-61
2021/03/07 04:48:00;;;;;;;10.85;6.22;;;18.90;28.30;;;;;;5096583;28;20028;-60
2021/03/07 04:50:26;;;;;;;10.00;5.68;;;18.90;28.40;;;;;;5095470;28;20024;-60
2021/03/07 04:52:51;;;;;;;11.55;6.07;;;18.90;28.40;;;;;;5094939;28;20086;-61
2021/03/07 04:55:17;;;;;;;10.10;5.75;;;18.90;28.40;;;;;;5094757;28;20074;-61
2021/03/07 04:57:43;;;;;;;9.82;5.93;;;18.90;28.40;;;;;;5094587;28;20027;-60
2021/03/07 05:00:11;;;;;;;9.75;5.60;;;18.90;28.40;;;;;;5095168;28;20372;-60
2021/03/07 05:02:37;;;;;;;11.50;7.25;;;18.90;28.40;;;;;;5094109;28;20030;-60
2021/03/07 05:05:04;;;;;;;9.13;5.70;;;18.80;28.40;;;;;;5094225;28;20079;-60
2021/03/07 05:07:29;;;;;;;9.88;5.60;;;18.80;28.40;;;;;;5093988;28;20028;-60
2021/03/07 05:09:55;;;;;;;10.45;6.10;;;18.90;28.40;;;;;;5094153;28;20031;-60
2021/03/07 05:12:21;;;;;;;8.75;5.40;;;18.90;28.30;;;;;;5094046;28;20036;-60
2021/03/07 05:14:47;;;;;;;10.25;5.28;;;18.90;28.30;;;;;;5094776;28;20028;-61
2021/03/07 05:17:12;;;;;;;9.23;4.80;;;18.90;28.30;;;;;;5093821;28;20398;-61
2021/03/07 05:19:38;;;;;;;9.77;5.35;;;18.90;28.30;;;;;;5093804;28;20097;-60
2021/03/07 05:22:03;;;;;;;9.95;5.43;;;18.90;28.20;;;;;;5093988;28;20020;-60
2021/03/07 05:24:29;;;;;;;10.15;5.50;;;19.00;28.20;;;;;;5093744;28;20019;-60
2021/03/07 05:26:54;;;;;;;10.38;5.90;;;19.00;28.20;;;;;;5094039;28;20480;-60
2021/03/07 05:29:20;;;;;;;10.63;5.65;;;19.00;28.20;;;;;;5094178;28;20024;-60
2021/03/07 05:31:46;;;;;;;9.60;5.63;;;19.00;28.20;;;;;;5094339;28;20085;-60
2021/03/07 05:34:11;;;;;;;12.00;6.15;;;19.10;28.20;;;;;;5094135;28;20017;-60
2021/03/07 05:36:37;;;;;;;11.75;5.65;;;19.10;28.10;;;;;;5094665;28;20024;-60
2021/03/07 05:39:03;;;;;;;8.55;4.80;;;19.10;28.10;;;;;;5093959;28;20023;-60
2021/03/07 05:41:29;;;;;;;9.35;5.13;;;19.10;28.10;;;;;;5094148;28;20470;-60
2021/03/07 05:43:55;;;;;;;8.43;4.90;;;19.10;28.00;;;;;;5093895;28;20024;-60
2021/03/07 05:46:20;;;;;;;10.32;5.28;;;19.20;28.10;;;;;;5093846;28;20032;-60
2021/03/07 05:48:46;;;;;;;9.48;5.15;;;19.20;28.00;;;;;;5093932;28;20051;-60
2021/03/07 05:51:13;;;;;;;9.85;4.90;;;19.20;27.90;;;;;;5093613;28;20360;-60
2021/03/07 05:53:47;;;;;;;10.07;5.25;;;19.20;28.00;;;;;;5093748;28;20031;-59
2021/03/07 05:56:13;;;;;;;8.35;4.63;;;19.30;28.00;;;;;;5093928;28;20111;-61
2021/03/07 05:58:40;;;;;;;10.40;6.28;;;19.30;28.00;;;;;;5093650;28;20572;-60
2021/03/07 06:01:06;;;;;;;9.48;5.28;;;19.30;27.90;;;;;;5093864;28;20020;-60
2021/03/07 06:03:32;;;;;;;8.05;4.65;;;19.30;27.90;;;;;;5093731;28;20588;-60
2021/03/07 06:05:57;;;;;;;8.98;4.88;;;19.30;27.90;;;;;;5093262;28;20055;-60
2021/03/07 06:08:23;;;;;;;9.68;5.18;;;19.40;27.80;;;;;;5094669;28;20371;-60
2021/03/07 06:10:49;;;;;;;10.88;4.95;;;19.40;27.90;;;;;;5093029;28;20109;-60
2021/03/07 06:13:16;;;;;;;9.70;4.88;;;19.40;27.80;;;;;;5093497;28;20024;-60
2021/03/07 06:16:01;;;;;;;9.30;4.97;;;19.40;27.80;;;;;;5093887;28;20035;-59
2021/03/07 06:18:27;;;;;;;8.55;4.88;;;19.50;27.80;;;;;;5097222;28;20047;-60
2021/03/07 06:20:53;;;;;;;8.48;4.70;;;19.50;27.80;;;;;;5095947;28;20047;-60
2021/03/07 06:23:36;;;;;;;9.80;5.13;;;19.50;27.80;;;;;;5097378;28;20035;-59
2021/03/07 06:26:09;;;;;;;9.38;5.10;;;19.50;27.80;;;;;;5096838;28;20082;-60
2021/03/07 06:28:35;;;;;;;7.85;4.72;;;19.50;27.80;;;;;;5097162;28;20024;-60
2021/03/07 06:31:00;;;;;;;9.23;5.10;;;19.50;27.70;;;;;;5097356;28;20468;-59
2021/03/07 06:33:34;;;;;;;8.85;4.80;;;19.50;27.70;;;;;;5097331;28;20042;-60
2021/03/07 06:36:20;;;;;;;7.90;4.38;;;19.60;27.80;;;;;;5096010;28;20034;-60
2021/03/07 06:38:50;;;;;;;9.88;4.80;;;19.60;27.80;;;;;;5100009;28;20126;-59
2021/03/07 06:41:18;;;;;;;8.75;4.60;;;19.60;27.70;;;;;;5105009;28;20089;-59
2021/03/07 06:43:44;;;;;;;9.13;4.75;;;19.60;27.70;;;;;;5101243;28;20020;-60
2021/03/07 06:46:31;;;;;;;8.68;4.45;;;19.60;27.70;;;;;;5101851;28;20119;-60
2021/03/07 06:48:57;;;;;;;7.78;4.28;;;19.60;27.70;;;;;;5096964;28;20035;-59
2021/03/07 06:51:30;;;;;;;10.88;5.32;;;19.70;27.70;;;;;;5101449;28;20036;-59
2021/03/07 06:53:57;;;;;;;8.63;4.50;;;19.70;27.70;;;;;;5100372;28;20372;-60
2021/03/07 06:56:40;;;;;;;9.35;5.18;;;19.70;27.70;;;;;;5097737;28;20031;-59
2021/03/07 06:59:14;;;;;;;7.78;4.43;;;19.70;27.60;;;;;;5099191;28;20016;-59
2021/03/07 07:01:42;;;;;;;9.85;4.78;;;19.70;27.70;;;;;;5102325;28;20035;-60
2021/03/07 07:04:07;;;;;;;8.02;4.38;;;19.80;27.70;;;;;;5097023;28;20127;-59
2021/03/07 07:06:33;;;;;;;7.85;4.22;;;19.70;27.70;;;;;;5095511;28;20123;-59
2021/03/07 07:09:00;;;;;;;8.45;4.72;;;19.80;27.70;;;;;;5096590;28;20107;-59
2021/03/07 07:11:26;;;;;;;8.93;4.47;;;19.80;27.60;;;;;;5096391;28;20081;-60
2021/03/07 07:13:52;;;;;;;9.32;4.70;;;19.80;27.60;;;;;;5096619;28;20103;-60
2021/03/07 07:16:18;;;;;;;9.18;4.47;;;19.90;27.60;;;;;;5096353;28;20052;-59
2021/03/07 07:18:45;;;;;;;7.03;3.92;;;19.90;27.60;;;;;;5101650;28;20503;-60
2021/03/07 07:21:13;;;;;;;8.82;4.30;;;19.90;27.60;;;;;;5099298;28;20039;-60
2021/03/07 07:23:39;;;;;;;8.15;4.30;;;19.90;27.60;;;;;;5096073;28;20111;-59
2021/03/07 07:26:06;;;;;;;7.40;4.15;;;19.90;27.60;;;;;;5096246;28;20115;-60
2021/03/07 07:28:33;;;;;;;8.25;4.00;;;20.00;27.70;;;;;;5094121;28;20024;-59
2021/03/07 07:31:08;;;;;;;8.52;4.30;;;20.00;27.70;;;;;;5096060;28;20055;-59
2021/03/07 07:33:44;;;;;;;7.25;4.05;;;20.00;27.60;;;;;;5095970;28;20052;-60
2021/03/07 07:36:13;;;;;;;7.47;4.22;;;20.00;27.60;;;;;;5095946;28;20506;-60
2021/03/07 07:38:39;;;;;;;8.93;4.10;;;20.00;27.60;;;;;;5095777;28;20518;-62
2021/03/07 07:41:25;;;;;;;9.30;4.57;;;20.00;27.60;;;;;;5096232;28;20051;-59
2021/03/07 07:43:51;;;;;;;7.38;4.13;;;20.00;27.60;;;;;;5095562;28;20031;-59
2021/03/07 07:46:17;;;;;;;9.45;4.85;;;20.10;27.60;;;;;;5095464;28;20035;-59
2021/03/07 07:48:43;;;;;;;7.95;4.00;;;20.10;27.60;;;;;;5095653;28;20027;-60
2021/03/07 07:51:29;;;;;;;7.85;4.18;;;20.10;27.50;;;;;;5095541;28;20028;-59
2021/03/07 07:53:55;;;;;;;7.30;4.20;;;20.10;27.60;;;;;;5095646;28;20047;-59
2021/03/07 07:56:43;;;;;;;7.68;4.65;;;20.20;27.60;;;;;;5095544;28;20525;-59
2021/03/07 07:59:13;;;;;;;7.90;4.18;;;20.10;27.60;;;;;;5095379;28;20024;-59
2021/03/07 08:01:54;;;;;;;9.45;4.53;;;20.10;27.50;;;;;;5095793;28;20020;-60
2021/03/07 08:04:28;;;;;;;8.38;4.55;;;20.20;27.50;;;;;;5095364;28;20093;-60
2021/03/07 08:07:01;;;;;;;7.75;3.92;;;20.20;27.60;;;;;;5095807;28;20032;-60
2021/03/07 08:09:46;;;;;;;6.82;3.78;;;20.20;27.60;;;;;;5095179;28;20031;-59
2021/03/07 08:12:42;;;;;;;7.57;4.35;;;20.20;27.60;;;;;;5095402;28;20020;-60
2021/03/07 08:15:26;;;;;;;7.95;4.05;;;20.20;27.60;;;;;;5095360;28;20274;-59
2021/03/07 08:17:53;;;;;;;6.65;3.45;;;20.30;27.50;;;;;;5094656;28;20048;-60
2021/03/07 08:20:37;;;;;;;7.10;3.88;;;20.30;27.60;;;;;;5095443;28;20103;-59
2021/03/07 08:23:02;;;;;;;7.90;3.78;;;20.30;27.60;;;;;;5095366;28;20024;-59
2021/03/07 08:25:48;;;;;;;9.15;3.72;;;20.30;27.50;;;;;;5095128;28;20490;-59
2021/03/07 08:28:28;;;;;;;7.95;3.92;;;20.30;27.50;;;;;;5095033;28;20357;-59
2021/03/07 08:30:59;;;;;;;7.28;4.13;;;20.40;27.50;;;;;;5095119;28;20024;-59
2021/03/07 08:33:33;;;;;;;6.35;3.50;;;20.40;27.50;;;;;;5097839;28;20033;-60
2021/03/07 08:36:14;;;;;;;7.80;3.67;;;20.40;27.50;;;;;;5101564;28;20043;-60
2021/03/07 08:38:49;;;;;;;6.63;3.65;;;20.40;27.50;;;;;;5094271;28;20059;-59
2021/03/07 08:41:23;;;;;;;7.15;3.65;;;20.40;27.50;;;;;;5094419;28;20367;-60
2021/03/07 08:43:50;;;;;;;7.70;3.63;;;20.40;27.50;;;;;;5094609;28;20030;-60
2021/03/07 08:46:20;;;;;;;6.70;3.75;;;20.50;27.50;;;;;;5094411;28;20036;-59
2021/03/07 08:48:51;;;;;;;6.30;3.38;;;20.50;27.50;;;;;;5094313;28;20557;-60
2021/03/07 08:51:19;;;;;;;7.18;3.50;;;20.50;27.50;;;;;;5094401;28;20020;-60
2021/03/07 08:53:46;;;;;;;7.63;4.10;;;20.50;27.50;;;;;;5094238;28;20070;-60
2021/03/07 08:56:13;;;;;;;7.10;4.03;;;20.50;27.50;;;;;;5094011;28;20024;-61
2021/03/07 08:58:39;;;;;;;5.93;3.25;;;20.50;27.50;;;;;;5094157;28;20020;-61
2021/03/07 09:01:06;;;;;;;6.13;3.25;;;20.50;27.50;;;;;;5094196;28;20085;-60
2021/03/07 09:03:32;;;;;;;7.18;3.65;;;20.50;27.50;;;;;;5094499;28;20394;-60
2021/03/07 09:05:57;;;;;;;7.88;4.15;;;20.60;27.50;;;;;;5093963;28;20483;-60
2021/03/07 09:08:26;;;;;;;7.43;3.30;;;20.60;27.50;;;;;;5094362;28;20345;-60
2021/03/07 09:10:59;;;;;;;7.10;3.60;;;20.60;27.50;;;;;;5094182;28;20034;-60
2021/03/07 09:13:27;;;;;;;7.25;3.33;;;20.60;27.50;;;;;;5094004;28;20469;-60
2021/03/07 09:15:59;;;;;;;7.00;3.40;;;20.60;27.50;;;;;;5092663;28;20036;-60
2021/03/07 09:18:29;;;;;;;7.15;3.08;;;20.60;27.50;;;;;;5093890;28;20040;-60
2021/03/07 09:20:57;;;;;;;6.25;3.33;;;20.70;27.40;;;;;;5093844;28;20073;-61
2021/03/07 09:23:36;;;;;;;7.47;3.90;;;20.70;27.50;;;;;;5094153;28;20120;-60
2021/03/07 09:26:05;;;;;;;7.05;3.50;;;20.70;27.50;;;;;;5093577;28;20036;-60
2021/03/07 09:28:45;;;;;;;6.13;3.38;;;20.70;27.40;;;;;;5093461;28;20024;-60
2021/03/07 09:31:14;;;;;;;8.75;3.50;;;20.70;27.40;;;;;;5094199;28;20082;-58
2021/03/07 09:33:53;;;;;;;6.38;3.05;;;20.70;27.40;;;;;;5093591;28;20024;-59
2021/03/07 09:36:21;;;;;;;7.18;3.47;;;20.80;27.50;;;;;;5093607;28;20115;-59
2021/03/07 09:38:48;;;;;;;6.60;2.60;;;20.80;27.40;;;;;;5093298;28;20024;-59
2021/03/07 09:41:16;;;;;;;6.65;3.42;;;20.80;27.40;;;;;;5092909;28;20531;-59
2021/03/07 09:43:48;;;;;;;6.95;3.40;;;20.80;27.40;;;;;;5093252;28;20032;-60
2021/03/07 09:46:15;;;;;;;6.43;3.05;;;20.90;27.30;;;;;;5092814;28;20492;-60
2021/03/07 09:48:43;;;;;;;6.18;3.03;;;20.80;27.30;;;;;;5091728;28;20030;-60
2021/03/07 09:51:14;;;;;;;6.07;3.17;;;20.90;27.20;;;;;;5092330;28;20383;-60
2021/03/07 09:53:41;;;;;;;8.05;3.25;;;20.90;27.20;;;;;;5092993;28;20020;-60
2021/03/07 09:56:21;;;;;;;5.15;2.70;;;20.90;27.30;;;;;;5092846;28;20085;-60
2021/03/07 09:58:46;;;;;;;7.10;2.95;;;21.00;27.20;;;;;;5093041;28;20379;-60
2021/03/07 10:01:12;;;;;;;6.10;2.90;;;20.90;27.10;;;;;;5093033;28;20024;-61
2021/03/07 10:03:37;;;;;;;6.93;2.92;;;20.90;27.20;;;;;;5092829;28;20012;-61
2021/03/07 10:06:11;;;;;;;4.43;2.40;;;21.00;27.10;;;;;;5092665;28;20039;-59
2021/03/07 10:08:39;;;;;;;6.00;3.08;;;21.00;27.20;;;;;;5092851;28;20039;-60
2021/03/07 10:11:08;;;;;;;7.55;3.28;;;21.00;27.10;;;;;;5092808;28;20110;-60
2021/03/07 10:13:34;;;;;;;5.72;2.88;;;21.00;27.20;;;;;;5091497;28;20024;-60
2021/03/07 10:15:59;;;;;;;6.18;2.60;;;21.00;27.20;;;;;;5092867;28;20027;-61
2021/03/07 10:18:25;;;;;;;5.72;2.63;;;21.00;27.20;;;;;;5092516;28;20130;-60
2021/03/07 10:20:57;;;;;;;6.43;2.92;;;21.00;27.20;;;;;;5093222;28;20020;-60
2021/03/07 10:23:26;;;;;;;4.72;2.47;;;21.00;27.20;;;;;;5093779;28;20229;-60
2021/03/07 10:25:52;;;;;;;4.78;2.45;;;21.00;27.20;;;;;;5093422;28;20036;-59
2021/03/07 10:28:26;;;;;;;6.00;2.97;;;21.00;27.30;;;;;;5093342;28;20507;-59
2021/03/07 10:31:05;;;;;;;4.80;2.28;;;21.00;27.10;;;;;;5092968;28;20428;-59
2021/03/07 10:33:32;;;;;;;6.20;2.78;;;21.00;27.00;;;;;;5093282;28;20463;-60
2021/03/07 10:36:08;;;;;;;5.57;2.58;;;21.00;27.10;;;;;;5092906;28;20020;-59
2021/03/07 10:38:43;;;;;;;5.22;2.72;;;21.00;27.10;;;;;;5093468;28;20016;-59
2021/03/07 10:41:32;;;;;;;4.60;2.20;;;21.00;27.00;;;;;;5092959;28;20024;-60
2021/03/07 10:44:00;;;;;;;6.63;2.92;;;21.00;27.10;;;;;;5093002;28;20086;-60
2021/03/07 10:46:31;;;;;;;4.75;2.38;;;21.00;27.00;;;;;;5093085;28;20123;-59
2021/03/07 10:48:58;;;;;;;5.15;2.40;;;21.00;27.10;;;;;;5092930;28;20044;-60
2021/03/07 10:51:24;;;;;;;7.22;2.75;;;21.00;27.10;;;;;;5093245;28;20028;-59
2021/03/07 10:53:51;;;;;;;5.93;2.50;;;21.00;27.10;;;;;;5092840;28;20035;-60
2021/03/07 10:56:17;;;;;;;6.72;2.83;;;21.10;26.90;;;;;;5093076;28;20020;-60
2021/03/07 10:58:42;;;;;;;4.20;2.33;;;21.10;27.00;;;;;;5092986;28;20403;-60
2021/03/07 11:01:14;;;;;;;6.22;2.35;;;21.10;27.00;;;;;;5092972;28;20039;-59
2021/03/07 11:03:39;;;;;;;5.05;2.40;;;21.00;27.00;;;;;;5096071;28;20028;-60
2021/03/07 11:06:05;;;;;;;5.22;2.53;;;21.10;27.10;;;;;;5096180;28;20361;-60
2021/03/07 11:08:30;;;;;;;6.13;2.33;;;21.10;27.00;;;;;;5096339;28;20024;-60
2021/03/07 11:10:56;;;;;;;4.45;2.10;;;21.10;27.00;;;;;;5096252;28;20020;-59
2021/03/07 11:13:21;;;;;;;4.93;2.30;;;21.10;27.00;;;;;;5096781;28;20020;-60
2021/03/07 11:15:47;;;;;;;5.05;2.30;;;21.10;27.00;;;;;;5096511;28;20024;-59
2021/03/07 11:18:13;;;;;;;5.95;2.22;;;21.10;27.00;;;;;;5096208;28;20054;-60
2021/03/07 11:20:38;;;;;;;6.88;2.20;;;21.10;27.00;;;;;;5095611;28;20024;-60
2021/03/07 11:23:04;;;;;;;4.88;2.58;;;21.10;26.80;;;;;;5099318;28;20414;-60
2021/03/07 11:25:29;;;;;;;4.72;2.30;;;21.10;26.90;;;;;;5095871;28;20020;-60
2021/03/07 11:27:55;;;;;;;5.20;2.08;;;21.10;26.90;;;;;;5099879;28;20024;-60
2021/03/07 11:30:21;;;;;;;5.25;2.58;;;21.20;26.80;;;;;;5104814;28;20024;-60
2021/03/07 11:32:46;;;;;;;5.78;2.33;;;21.40;26.70;;;;;;5104070;28;20111;-60
2021/03/07 11:35:12;;;;;;;5.45;2.30;;;21.50;26.50;;;;;;5104017;28;20024;-60
2021/03/07 11:37:37;;;;;;;5.00;2.25;;;21.50;26.50;;;;;;5098022;28;20016;-60
2021/03/07 11:40:05;;;;;;;4.65;2.28;;;21.40;26.60;;;;;;5103547;28;20035;-60
2021/03/07 11:42:30;;;;;;;4.95;2.05;;;21.40;26.60;;;;;;5101509;28;20081;-60
2021/03/07 11:44:56;;;;;;;4.07;1.95;;;21.30;26.60;;;;;;5097071;28;20024;-59
2021/03/07 11:47:21;;;;;;;4.65;2.00;;;21.30;26.70;;;;;;5096526;28;20071;-59
2021/03/07 11:49:47;;;;;;;4.28;1.88;;;21.30;26.70;;;;;;5096521;28;20073;-59
2021/03/07 11:52:12;;;;;;;4.57;2.38;;;21.30;26.70;;;;;;5096698;28;20036;-59
2021/03/07 11:54:38;;;;;;;5.28;2.67;;;21.50;26.50;;;;;;5095884;28;20484;-59
2021/03/07 11:57:05;;;;;;;3.95;1.73;;;21.60;26.30;;;;;;5095561;28;20028;-59
2021/03/07 11:59:33;;;;;;;3.72;1.65;;;21.70;26.20;;;;;;5095245;28;20028;-59
2021/03/07 12:01:59;;;;;;;4.35;1.98;;;21.50;26.30;;;;;;5095444;28;20467;-61
2021/03/07 12:04:24;;;;;;;4.75;2.03;;;21.70;26.10;;;;;;5095440;28;20077;-59
2021/03/07 12:06:50;;;;;;;4.10;2.00;;;21.70;26.10;;;;;;5094858;28;20028;-59
2021/03/07 12:09:15;;;;;;;4.40;2.00;;;21.70;26.20;;;;;;5095543;28;20167;-59
2021/03/07 12:11:41;;;;;;;4.25;1.95;;;21.60;26.20;;;;;;5095302;28;20074;-59
2021/03/07 12:14:06;;;;;;;4.90;1.65;;;21.50;26.30;;;;;;5094894;28;20028;-59
2021/03/07 12:16:32;;;;;;;4.45;1.80;;;21.50;26.30;;;;;;5095359;28;20030;-59
2021/03/07 12:18:57;;;;;;;3.90;1.90;;;21.50;26.40;;;;;;5095029;28;20052;-59
2021/03/07 12:21:23;;;;;;;3.58;1.90;;;21.50;26.50;;;;;;5094954;28;20024;-59
2021/03/07 12:23:48;;;;;;;3.67;1.92;;;21.50;26.40;;;;;;5095642;28;20078;-59
2021/03/07 12:26:14;;;;;;;4.47;2.08;;;21.60;26.20;;;;;;5095006;28;20035;-59
2021/03/07 12:28:40;;;;;;;3.80;1.92;;;21.70;26.10;;;;;;5093762;28;20047;-59
2021/03/07 12:31:06;;;;;;;3.95;1.70;;;21.80;26.00;;;;;;5095291;28;20072;-59
2021/03/07 12:33:31;;;;;;;4.97;2.03;;;21.80;26.00;;;;;;5094535;28;20027;-59
2021/03/07 12:35:57;;;;;;;5.22;2.15;;;21.80;26.00;;;;;;5094555;28;20028;-59
2021/03/07 12:38:23;;;;;;;3.78;1.70;;;21.80;26.10;;;;;;5094679;28;20028;-59
2021/03/07 12:40:48;;;;;;;4.70;1.98;;;21.90;26.00;;;;;;5094245;28;20031;-59
2021/03/07 12:43:14;;;;;;;4.13;1.75;;;21.80;26.00;;;;;;5094799;28;20028;-60
2021/03/07 12:45:40;;;;;;;4.97;2.58;;;21.80;26.10;;;;;;5094418;28;20060;-61
2021/03/07 12:48:06;;;;;;;4.22;2.08;;;21.70;26.10;;;;;;5094480;28;20027;-59